sensor_id;sensor_type;location;lat;lon;timestamp;pressure;altitude;pressure_sealevel;temperature;humidity
4972;BME280;2501;51.214;6.768;2023-05-23T00:01:48;101390.66;;;15.48;97.68
4972;BME280;2501;51.214;6.768;2023-05-23T00:04:19;101396.88;;;15.37;97.27
4972;BME280;2501;51.214;6.768;2023-05-23T00:06:53;101395.97;;;15.57;96.35
4972;BME280;2501;51.214;6.768;2023-05-23T00:09:22;101390.66;;;15.56;95.42
4972;BME280;2501;51.214;6.768;2023-05-23T00:11:50;101395.97;;;15.57;95.09
4972;BME280;2501;51.214;6.768;2023-05-23T00:14:19;101391.50;;;15.61;95.03
4972;BME280;2501;51.214;6.768;2023-05-23T00:16:48;101388.03;;;15.45;95.14
4972;BME280;2501;51.214;6.768;2023-05-23T00:19:16;101386.19;;;15.73;94.41
4972;BME280;2501;51.214;6.768;2023-05-23T00:21:46;101395.91;;;15.59;94.01
4972;BME280;2501;51.214;6.768;2023-05-23T00:24:18;101383.56;;;15.65;93.72
4972;BME280;2501;51.214;6.768;2023-05-23T00:26:46;101397.66;;;15.69;93.55
4972;BME280;2501;51.214;6.768;2023-05-23T00:29:15;101395.91;;;15.63;93.72
4972;BME280;2501;51.214;6.768;2023-05-23T00:31:44;101389.72;;;15.66;93.80
4972;BME280;2501;51.214;6.768;2023-05-23T00:34:13;101384.44;;;15.68;93.94
4972;BME280;2501;51.214;6.768;2023-05-23T00:36:42;101390.59;;;15.70;93.95
4972;BME280;2501;51.214;6.768;2023-05-23T00:39:12;101395.03;;;15.64;94.05
4972;BME280;2501;51.214;6.768;2023-05-23T00:41:46;101393.31;;;15.57;95.10
4972;BME280;2501;51.214;6.768;2023-05-23T00:44:15;101408.25;;;15.63;95.33
4972;BME280;2501;51.214;6.768;2023-05-23T00:46:47;101407.41;;;15.46;95.80
4972;BME280;2501;51.214;6.768;2023-05-23T00:49:17;101409.16;;;15.47;96.36
4972;BME280;2501;51.214;6.768;2023-05-23T00:51:46;101417.97;;;15.41;96.46
4972;BME280;2501;51.214;6.768;2023-05-23T00:54:17;101417.16;;;15.30;94.97
4972;BME280;2501;51.214;6.768;2023-05-23T00:56:48;101434.81;;;15.16;94.10
4972;BME280;2501;51.214;6.768;2023-05-23T00:59:17;101424.25;;;15.11;92.22
4972;BME280;2501;51.214;6.768;2023-05-23T01:01:47;101422.47;;;15.15;91.27
4972;BME280;2501;51.214;6.768;2023-05-23T01:04:16;101431.28;;;15.08;89.80
4972;BME280;2501;51.214;6.768;2023-05-23T01:06:44;101435.69;;;15.07;89.13
4972;BME280;2501;51.214;6.768;2023-05-23T01:09:14;101429.53;;;15.07;88.94
4972;BME280;2501;51.214;6.768;2023-05-23T01:11:53;101433.97;;;15.06;88.86
4972;BME280;2501;51.214;6.768;2023-05-23T01:14:31;101426.88;;;15.08;89.17
4972;BME280;2501;51.214;6.768;2023-05-23T01:17:08;101434.84;;;15.04;89.29
4972;BME280;2501;51.214;6.768;2023-05-23T01:19:54;101419.84;;;15.10;89.72
4972;BME280;2501;51.214;6.768;2023-05-23T01:22:35;101416.31;;;15.07;90.21
4972;BME280;2501;51.214;6.768;2023-05-23T01:25:10;101423.34;;;15.11;90.20
4972;BME280;2501;51.214;6.768;2023-05-23T01:27:54;101424.25;;;15.16;89.63
4972;BME280;2501;51.214;6.768;2023-05-23T01:30:24;101425.16;;;15.04;89.45
4972;BME280;2501;51.214;6.768;2023-05-23T01:32:54;101421.59;;;15.16;89.62
4972;BME280;2501;51.214;6.768;2023-05-23T01:35:25;101437.44;;;15.11;89.68
4972;BME280;2501;51.214;6.768;2023-05-23T01:37:54;101432.16;;;15.08;90.09
4972;BME280;2501;51.214;6.768;2023-05-23T01:40:23;101436.59;;;15.06;90.52
4972;BME280;2501;51.214;6.768;2023-05-23T01:42:55;101430.41;;;15.13;90.53
4972;BME280;2501;51.214;6.768;2023-05-23T01:45:25;101433.94;;;15.12;90.17
4972;BME280;2501;51.214;6.768;2023-05-23T01:47:59;101440.97;;;15.19;90.36
4972;BME280;2501;51.214;6.768;2023-05-23T01:50:30;101430.41;;;15.22;90.33
4972;BME280;2501;51.214;6.768;2023-05-23T01:52:59;101431.31;;;15.06;90.08
4972;BME280;2501;51.214;6.768;2023-05-23T01:55:28;101442.75;;;14.99;90.51
4972;BME280;2501;51.214;6.768;2023-05-23T01:57:59;101443.66;;;15.00;90.95
4972;BME280;2501;51.214;6.768;2023-05-23T02:00:29;101435.69;;;15.07;90.76
4972;BME280;2501;51.214;6.768;2023-05-23T02:02:57;101431.31;;;15.02;90.97
4972;BME280;2501;51.214;6.768;2023-05-23T02:05:26;101437.47;;;15.05;91.01
4972;BME280;2501;51.214;6.768;2023-05-23T02:07:55;101441.88;;;14.98;90.84
4972;BME280;2501;51.214;6.768;2023-05-23T02:10:23;101449.81;;;14.94;90.85
4972;BME280;2501;51.214;6.768;2023-05-23T02:12:51;101435.72;;;15.04;90.83
4972;BME280;2501;51.214;6.768;2023-05-23T02:15:23;101442.75;;;15.04;90.37
4972;BME280;2501;51.214;6.768;2023-05-23T02:17:51;101447.16;;;15.05;90.36
4972;BME280;2501;51.214;6.768;2023-05-23T02:20:19;101440.13;;;15.01;89.96
4972;BME280;2501;51.214;6.768;2023-05-23T02:22:48;101441.84;;;15.08;90.50
4972;BME280;2501;51.214;6.768;2023-05-23T02:25:16;101440.97;;;15.10;90.19
4972;BME280;2501;51.214;6.768;2023-05-23T02:27:45;101439.22;;;15.09;90.37
4972;BME280;2501;51.214;6.768;2023-05-23T02:30:13;101437.44;;;15.10;90.28
4972;BME280;2501;51.214;6.768;2023-05-23T02:32:44;101439.22;;;15.18;90.65
4972;BME280;2501;51.214;6.768;2023-05-23T02:35:13;101440.97;;;15.22;90.27
4972;BME280;2501;51.214;6.768;2023-05-23T02:37:41;101446.25;;;15.13;90.53
4972;BME280;2501;51.214;6.768;2023-05-23T02:40:10;101447.13;;;15.11;90.65
4972;BME280;2501;51.214;6.768;2023-05-23T02:42:38;101457.72;;;15.15;90.48
4972;BME280;2501;51.214;6.768;2023-05-23T02:45:08;101455.06;;;15.11;91.04
4972;BME280;2501;51.214;6.768;2023-05-23T02:47:40;101452.41;;;15.12;90.70
4972;BME280;2501;51.214;6.768;2023-05-23T02:50:11;101461.25;;;15.02;90.95
4972;BME280;2501;51.214;6.768;2023-05-23T02:52:40;101461.25;;;15.05;91.01
4972;BME280;2501;51.214;6.768;2023-05-23T02:55:09;101459.47;;;15.09;91.09
4972;BME280;2501;51.214;6.768;2023-05-23T02:57:38;101455.06;;;15.15;90.79
4972;BME280;2501;51.214;6.768;2023-05-23T03:00:07;101456.81;;;15.15;91.05
4972;BME280;2501;51.214;6.768;2023-05-23T03:02:37;101463.88;;;14.96;91.44
4972;BME280;2501;51.214;6.768;2023-05-23T03:05:06;101470.94;;;14.92;92.39
4972;BME280;2501;51.214;6.768;2023-05-23T03:07:37;101466.53;;;15.02;92.34
4972;BME280;2501;51.214;6.768;2023-05-23T03:10:07;101465.66;;;14.85;92.48
4972;BME280;2501;51.214;6.768;2023-05-23T03:12:36;101468.31;;;14.88;92.82
4972;BME280;2501;51.214;6.768;2023-05-23T03:15:06;101465.66;;;14.94;93.00
4972;BME280;2501;51.214;6.768;2023-05-23T03:17:34;101463.91;;;14.87;92.84
4972;BME280;2501;51.214;6.768;2023-05-23T03:20:04;101463.91;;;14.87;93.14
4972;BME280;2501;51.214;6.768;2023-05-23T03:22:36;101462.13;;;14.80;93.01
4972;BME280;2501;51.214;6.768;2023-05-23T03:25:08;101463.03;;;14.79;92.99
4972;BME280;2501;51.214;6.768;2023-05-23T03:27:36;101463.00;;;14.77;92.95
4972;BME280;2501;51.214;6.768;2023-05-23T03:30:06;101462.13;;;14.74;93.42
4972;BME280;2501;51.214;6.768;2023-05-23T03:32:35;101473.59;;;14.68;93.65
4972;BME280;2501;51.214;6.768;2023-05-23T03:35:04;101468.28;;;14.74;93.84
4972;BME280;2501;51.214;6.768;2023-05-23T03:37:32;101462.13;;;14.75;93.34
4972;BME280;2501;51.214;6.768;2023-05-23T03:40:04;101468.28;;;14.77;92.90
4972;BME280;2501;51.214;6.768;2023-05-23T03:42:34;101463.88;;;14.73;92.53
4972;BME280;2501;51.214;6.768;2023-05-23T03:45:04;101471.84;;;14.69;93.17
4972;BME280;2501;51.214;6.768;2023-05-23T03:47:33;101470.06;;;14.69;93.03
4972;BME280;2501;51.214;6.768;2023-05-23T03:50:01;101476.22;;;14.65;92.96
4972;BME280;2501;51.214;6.768;2023-05-23T03:52:30;101485.88;;;14.60;92.79
4972;BME280;2501;51.214;6.768;2023-05-23T03:54:59;101489.41;;;14.56;93.22
4972;BME280;2501;51.214;6.768;2023-05-23T03:57:30;101488.53;;;14.57;93.19
4972;BME280;2501;51.214;6.768;2023-05-23T03:59:58;101492.06;;;14.60;93.33
4972;BME280;2501;51.214;6.768;2023-05-23T04:02:30;101492.94;;;14.64;93.27
4972;BME280;2501;51.214;6.768;2023-05-23T04:04:58;101492.06;;;14.62;92.98
4972;BME280;2501;51.214;6.768;2023-05-23T04:07:27;101497.31;;;14.50;93.40
4972;BME280;2501;51.214;6.768;2023-05-23T04:09:59;101495.56;;;14.59;93.20
4972;BME280;2501;51.214;6.768;2023-05-23T04:12:30;101500.88;;;14.67;93.04
4972;BME280;2501;51.214;6.768;2023-05-23T04:14:58;101507.91;;;14.68;93.15
4972;BME280;2501;51.214;6.768;2023-05-23T04:17:28;101508.78;;;14.73;93.07
4972;BME280;2501;51.214;6.768;2023-05-23T04:19:57;101514.94;;;14.58;93.71
4972;BME280;2501;51.214;6.768;2023-05-23T04:22:25;101514.94;;;14.49;94.20
4972;BME280;2501;51.214;6.768;2023-05-23T04:24:53;101510.44;;;14.39;95.27
4972;BME280;2501;51.214;6.768;2023-05-23T04:27:22;101510.44;;;14.38;95.79
4972;BME280;2501;51.214;6.768;2023-05-23T04:29:53;101507.88;;;14.45;95.89
4972;BME280;2501;51.214;6.768;2023-05-23T04:32:22;101517.53;;;14.45;95.69
4972;BME280;2501;51.214;6.768;2023-05-23T04:34:51;101519.28;;;14.37;95.95
4972;BME280;2501;51.214;6.768;2023-05-23T04:37:21;101522.78;;;14.36;96.51
4972;BME280;2501;51.214;6.768;2023-05-23T04:39:50;101527.22;;;14.41;96.47
4972;BME280;2501;51.214;6.768;2023-05-23T04:42:19;101528.91;;;14.38;96.55
4972;BME280;2501;51.214;6.768;2023-05-23T04:44:53;101534.25;;;14.42;96.90
4972;BME280;2501;51.214;6.768;2023-05-23T04:47:21;101533.38;;;14.40;96.82
4972;BME280;2501;51.214;6.768;2023-05-23T04:49:53;101536.88;;;14.42;97.07
4972;BME280;2501;51.214;6.768;2023-05-23T04:52:21;101536.88;;;14.41;96.81
4972;BME280;2501;51.214;6.768;2023-05-23T04:54:51;101538.59;;;14.39;96.69
4972;BME280;2501;51.214;6.768;2023-05-23T04:57:20;101536.84;;;14.30;97.21
4972;BME280;2501;51.214;6.768;2023-05-23T04:59:48;101546.50;;;14.28;97.36
4972;BME280;2501;51.214;6.768;2023-05-23T05:02:19;101538.56;;;14.23;97.75
4972;BME280;2501;51.214;6.768;2023-05-23T05:04:48;101535.94;;;14.28;98.07
4972;BME280;2501;51.214;6.768;2023-05-23T05:07:16;101544.72;;;14.24;98.18
4972;BME280;2501;51.214;6.768;2023-05-23T05:09:45;101546.47;;;14.25;98.53
4972;BME280;2501;51.214;6.768;2023-05-23T05:12:13;101540.28;;;14.14;98.55
4972;BME280;2501;51.214;6.768;2023-05-23T05:14:42;101546.47;;;14.22;98.37
4972;BME280;2501;51.214;6.768;2023-05-23T05:17:10;101547.41;;;14.33;98.74
4972;BME280;2501;51.214;6.768;2023-05-23T05:19:41;101547.41;;;14.36;98.29
4972;BME280;2501;51.214;6.768;2023-05-23T05:22:10;101554.44;;;14.36;98.25
4972;BME280;2501;51.214;6.768;2023-05-23T05:24:39;101550.91;;;14.29;98.33
4972;BME280;2501;51.214;6.768;2023-05-23T05:27:07;101557.09;;;14.37;98.61
4972;BME280;2501;51.214;6.768;2023-05-23T05:29:36;101548.25;;;14.26;98.48
4972;BME280;2501;51.214;6.768;2023-05-23T05:32:04;101560.56;;;14.30;98.51
4972;BME280;2501;51.214;6.768;2023-05-23T05:34:33;101559.72;;;14.33;98.68
4972;BME280;2501;51.214;6.768;2023-05-23T05:37:05;101566.75;;;14.35;98.46
4972;BME280;2501;51.214;6.768;2023-05-23T05:39:33;101577.31;;;14.38;98.31
4972;BME280;2501;51.214;6.768;2023-05-23T05:45:20;101581.66;;;14.22;98.75
4972;BME280;2501;51.214;6.768;2023-05-23T05:48:07;101581.66;;;14.27;98.96
4972;BME280;2501;51.214;6.768;2023-05-23T05:50:49;101574.66;;;14.29;98.56
4972;BME280;2501;51.214;6.768;2023-05-23T05:53:52;101580.78;;;14.28;98.54
4972;BME280;2501;51.214;6.768;2023-05-23T05:57:38;101579.03;;;14.27;98.57
4972;BME280;2501;51.214;6.768;2023-05-23T06:01:37;101585.16;;;14.21;98.83
4972;BME280;2501;51.214;6.768;2023-05-23T06:04:22;101582.50;;;14.15;98.26
4972;BME280;2501;51.214;6.768;2023-05-23T06:07:42;101583.41;;;14.19;98.35
4972;BME280;2501;51.214;6.768;2023-05-23T06:13:39;101593.13;;;14.31;97.77
4972;BME280;2501;51.214;6.768;2023-05-23T06:16:21;101592.25;;;14.30;97.09
4972;BME280;2501;51.214;6.768;2023-05-23T06:19:16;101597.56;;;14.36;96.21
4972;BME280;2501;51.214;6.768;2023-05-23T06:22:23;101593.19;;;14.41;95.13
4972;BME280;2501;51.214;6.768;2023-05-23T06:25:59;101595.84;;;14.43;94.16
4972;BME280;2501;51.214;6.768;2023-05-23T06:32:48;101599.44;;;14.65;92.03
4972;BME280;2501;51.214;6.768;2023-05-23T06:36:17;101600.31;;;14.73;90.85
4972;BME280;2501;51.214;6.768;2023-05-23T06:39:26;101596.81;;;14.71;90.59
4972;BME280;2501;51.214;6.768;2023-05-23T06:42:07;101602.03;;;14.57;90.80
4972;BME280;2501;51.214;6.768;2023-05-23T06:44:35;101595.94;;;14.72;90.81
4972;BME280;2501;51.214;6.768;2023-05-23T06:50:30;101607.38;;;14.66;91.32
4972;BME280;2501;51.214;6.768;2023-05-23T06:53:38;101617.06;;;14.75;90.99
4972;BME280;2501;51.214;6.768;2023-05-23T06:56:16;101615.22;;;14.49;90.71
4972;BME280;2501;51.214;6.768;2023-05-23T06:59:01;101617.91;;;14.66;90.89
4972;BME280;2501;51.214;6.768;2023-05-23T07:01:49;101624.97;;;14.70;91.04
4972;BME280;2501;51.214;6.768;2023-05-23T07:04:51;101621.50;;;14.98;89.69
4972;BME280;2501;51.214;6.768;2023-05-23T07:07:27;101626.72;;;14.65;88.88
4972;BME280;2501;51.214;6.768;2023-05-23T07:10:14;101633.81;;;14.87;88.53
4972;BME280;2501;51.214;6.768;2023-05-23T07:12:50;101633.84;;;15.03;88.22
4972;BME280;2501;51.214;6.768;2023-05-23T07:15:54;101629.44;;;14.97;88.51
4972;BME280;2501;51.214;6.768;2023-05-23T07:18:28;101638.22;;;14.93;88.38
4972;BME280;2501;51.214;6.768;2023-05-23T07:20:57;101636.50;;;15.18;88.41
4972;BME280;2501;51.214;6.768;2023-05-23T07:23:55;101647.91;;;14.91;88.02
4972;BME280;2501;51.214;6.768;2023-05-23T07:26:49;101648.78;;;14.84;88.48
4972;BME280;2501;51.214;6.768;2023-05-23T07:29:39;101655.81;;;14.89;89.17
4972;BME280;2501;51.214;6.768;2023-05-23T07:32:40;101653.16;;;14.82;89.66
4972;BME280;2501;51.214;6.768;2023-05-23T07:35:29;101652.34;;;15.03;89.72
4972;BME280;2501;51.214;6.768;2023-05-23T07:38:30;101665.50;;;14.86;89.25
4972;BME280;2501;51.214;6.768;2023-05-23T07:41:21;101664.59;;;14.70;90.43
4972;BME280;2501;51.214;6.768;2023-05-23T07:44:17;101657.56;;;14.77;90.75
4972;BME280;2501;51.214;6.768;2023-05-23T07:46:46;101657.56;;;14.83;90.10
4972;BME280;2501;51.214;6.768;2023-05-23T07:49:15;101662.84;;;14.77;89.95
4972;BME280;2501;51.214;6.768;2023-05-23T07:51:43;101665.47;;;14.74;89.96
4972;BME280;2501;51.214;6.768;2023-05-23T07:54:12;101677.72;;;14.50;90.59
4972;BME280;2501;51.214;6.768;2023-05-23T07:56:43;101675.03;;;14.43;91.93
4972;BME280;2501;51.214;6.768;2023-05-23T07:59:12;101673.31;;;14.51;91.97
4972;BME280;2501;51.214;6.768;2023-05-23T08:01:41;101670.66;;;14.51;92.08
4972;BME280;2501;51.214;6.768;2023-05-23T08:04:09;101677.69;;;14.46;92.47
4972;BME280;2501;51.214;6.768;2023-05-23T08:06:37;101682.94;;;14.41;92.37
4972;BME280;2501;51.214;6.768;2023-05-23T08:09:06;101687.38;;;14.48;91.40
4972;BME280;2501;51.214;6.768;2023-05-23T08:11:34;101685.53;;;14.40;91.05
4972;BME280;2501;51.214;6.768;2023-05-23T08:14:05;101688.06;;;14.18;91.12
4972;BME280;2501;51.214;6.768;2023-05-23T08:16:34;101684.63;;;14.32;91.28
4972;BME280;2501;51.214;6.768;2023-05-23T08:19:03;101690.78;;;14.35;91.23
4972;BME280;2501;51.214;6.768;2023-05-23T08:21:31;101697.91;;;14.45;91.40
4972;BME280;2501;51.214;6.768;2023-05-23T08:24:00;101692.53;;;14.33;91.02
4972;BME280;2501;51.214;6.768;2023-05-23T08:26:30;101707.63;;;14.52;90.60
4972;BME280;2501;51.214;6.768;2023-05-23T08:28:59;101708.38;;;14.38;90.42
4972;BME280;2501;51.214;6.768;2023-05-23T08:31:31;101725.84;;;14.14;91.21
4972;BME280;2501;51.214;6.768;2023-05-23T08:34:00;101723.28;;;14.26;91.52
4972;BME280;2501;51.214;6.768;2023-05-23T08:36:28;101715.28;;;14.13;90.77
4972;BME280;2501;51.214;6.768;2023-05-23T08:38:58;101722.25;;;14.02;91.43
4972;BME280;2501;51.214;6.768;2023-05-23T08:41:28;101724.09;;;14.15;91.42
4972;BME280;2501;51.214;6.768;2023-05-23T08:43:57;101727.56;;;14.11;91.49
4972;BME280;2501;51.214;6.768;2023-05-23T08:46:26;101733.44;;;13.73;92.90
4972;BME280;2501;51.214;6.768;2023-05-23T08:48:57;101732.66;;;13.83;93.35
4972;BME280;2501;51.214;6.768;2023-05-23T08:51:27;101735.19;;;13.73;93.91
4972;BME280;2501;51.214;6.768;2023-05-23T08:53:56;101734.41;;;13.87;93.55
4972;BME280;2501;51.214;6.768;2023-05-23T08:56:25;101739.69;;;13.87;92.67
4972;BME280;2501;51.214;6.768;2023-05-23T08:58:54;101746.63;;;13.75;92.84
4972;BME280;2501;51.214;6.768;2023-05-23T09:01:23;101750.22;;;13.81;92.81
4972;BME280;2501;51.214;6.768;2023-05-23T09:03:57;101746.84;;;14.01;91.65
4972;BME280;2501;51.214;6.768;2023-05-23T09:06:29;101747.72;;;14.00;91.36
4972;BME280;2501;51.214;6.768;2023-05-23T09:08:58;101753.06;;;14.09;90.37
4972;BME280;2501;51.214;6.768;2023-05-23T09:11:27;101754.50;;;13.70;90.83
4972;BME280;2501;51.214;6.768;2023-05-23T09:13:58;101764.31;;;13.86;91.24
4972;BME280;2501;51.214;6.768;2023-05-23T09:16:31;101768.75;;;13.90;91.21
4972;BME280;2501;51.214;6.768;2023-05-23T09:19:09;101779.78;;;13.51;91.76
4972;BME280;2501;51.214;6.768;2023-05-23T09:21:42;101780.56;;;13.40;92.90
4972;BME280;2501;51.214;6.768;2023-05-23T09:24:10;101782.13;;;13.22;93.34
4972;BME280;2501;51.214;6.768;2023-05-23T09:26:39;101782.00;;;13.13;94.02
4972;BME280;2501;51.214;6.768;2023-05-23T09:29:07;101776.78;;;13.18;94.28
4972;BME280;2501;51.214;6.768;2023-05-23T09:31:36;101782.94;;;13.18;93.55
4972;BME280;2501;51.214;6.768;2023-05-23T09:34:07;101778.06;;;13.50;92.10
4972;BME280;2501;51.214;6.768;2023-05-23T09:36:35;101786.72;;;13.42;91.27
4972;BME280;2501;51.214;6.768;2023-05-23T09:39:10;101788.53;;;13.44;90.28
4972;BME280;2501;51.214;6.768;2023-05-23T09:41:39;101782.50;;;13.57;89.91
4972;BME280;2501;51.214;6.768;2023-05-23T09:44:08;101791.09;;;13.40;89.53
4972;BME280;2501;51.214;6.768;2023-05-23T09:46:37;101782.28;;;13.38;89.30
4972;BME280;2501;51.214;6.768;2023-05-23T09:49:17;101795.38;;;13.29;88.97
4972;BME280;2501;51.214;6.768;2023-05-23T09:51:56;101792.69;;;13.26;88.60
4972;BME280;2501;51.214;6.768;2023-05-23T09:54:25;101795.22;;;13.15;88.47
4972;BME280;2501;51.214;6.768;2023-05-23T09:56:53;101796.91;;;13.13;89.13
4972;BME280;2501;51.214;6.768;2023-05-23T09:59:27;101806.91;;;13.40;87.65
4972;BME280;2501;51.214;6.768;2023-05-23T10:01:56;101810.16;;;13.19;87.11
4972;BME280;2501;51.214;6.768;2023-05-23T10:04:30;101805.56;;;13.04;88.00
4972;BME280;2501;51.214;6.768;2023-05-23T10:07:05;101809.16;;;13.09;87.36
4972;BME280;2501;51.214;6.768;2023-05-23T10:09:39;101805.94;;;13.30;86.69
4972;BME280;2501;51.214;6.768;2023-05-23T10:12:35;101813.81;;;13.29;85.73
4972;BME280;2501;51.214;6.768;2023-05-23T10:15:08;101814.59;;;13.21;86.64
4972;BME280;2501;51.214;6.768;2023-05-23T10:17:45;101811.84;;;13.14;86.79
4972;BME280;2501;51.214;6.768;2023-05-23T10:20:24;101819.94;;;13.28;86.63
4972;BME280;2501;51.214;6.768;2023-05-23T10:22:54;101812.72;;;13.13;86.82
4972;BME280;2501;51.214;6.768;2023-05-23T10:25:23;101812.75;;;13.14;86.81
4972;BME280;2501;51.214;6.768;2023-05-23T10:27:54;101803.31;;;13.32;85.51
4972;BME280;2501;51.214;6.768;2023-05-23T10:30:24;101827.94;;;13.35;84.07
4972;BME280;2501;51.214;6.768;2023-05-23T10:32:53;101824.50;;;13.41;83.61
4972;BME280;2501;51.214;6.768;2023-05-23T10:35:35;101825.69;;;13.70;82.58
4972;BME280;2501;51.214;6.768;2023-05-23T10:38:12;101823.47;;;14.14;79.21
4972;BME280;2501;51.214;6.768;2023-05-23T10:40:52;101824.34;;;14.15;76.74
4972;BME280;2501;51.214;6.768;2023-05-23T10:43:32;101829.66;;;14.19;74.63
4972;BME280;2501;51.214;6.768;2023-05-23T10:46:02;101812.03;;;14.14;73.38
4972;BME280;2501;51.214;6.768;2023-05-23T10:48:32;101820.28;;;14.58;70.80
4972;BME280;2501;51.214;6.768;2023-05-23T10:51:07;101816.13;;;14.98;70.36
4972;BME280;2501;51.214;6.768;2023-05-23T10:53:37;101816.00;;;14.78;68.38
4972;BME280;2501;51.214;6.768;2023-05-23T10:56:07;101822.03;;;14.56;69.31
4972;BME280;2501;51.214;6.768;2023-05-23T10:58:37;101810.00;;;15.10;68.44
4972;BME280;2501;51.214;6.768;2023-05-23T11:01:07;101825.81;;;15.07;66.92
4972;BME280;2501;51.214;6.768;2023-05-23T11:03:37;101817.97;;;15.17;67.17
4972;BME280;2501;51.214;6.768;2023-05-23T11:06:31;101814.41;;;15.05;67.86
4972;BME280;2501;51.214;6.768;2023-05-23T11:09:03;101812.56;;;14.93;68.52
4972;BME280;2501;51.214;6.768;2023-05-23T11:11:53;101818.84;;;15.15;68.22
4972;BME280;2501;51.214;6.768;2023-05-23T11:14:31;101825.94;;;15.28;66.33
4972;BME280;2501;51.214;6.768;2023-05-23T11:17:15;101812.63;;;15.02;66.35
4972;BME280;2501;51.214;6.768;2023-05-23T11:19:58;101817.91;;;15.07;66.43
4972;BME280;2501;51.214;6.768;2023-05-23T11:22:33;101833.75;;;14.99;67.66
4972;BME280;2501;51.214;6.768;2023-05-23T11:25:05;101826.72;;;15.04;67.81
4972;BME280;2501;51.214;6.768;2023-05-23T11:27:36;101822.06;;;14.59;69.13
4972;BME280;2501;51.214;6.768;2023-05-23T11:30:07;101812.56;;;14.87;69.74
4972;BME280;2501;51.214;6.768;2023-05-23T11:32:38;101829.09;;;14.54;70.03
4972;BME280;2501;51.214;6.768;2023-05-23T11:35:08;101827.31;;;14.51;69.95
4972;BME280;2501;51.214;6.768;2023-05-23T11:37:40;101841.41;;;14.58;68.96
4972;BME280;2501;51.214;6.768;2023-05-23T11:40:28;101840.59;;;14.67;68.29
4972;BME280;2501;51.214;6.768;2023-05-23T11:42:57;101836.19;;;14.66;67.28
4972;BME280;2501;51.214;6.768;2023-05-23T11:45:27;101836.97;;;14.55;66.93
4972;BME280;2501;51.214;6.768;2023-05-23T11:47:56;101839.81;;;14.81;66.26
4972;BME280;2501;51.214;6.768;2023-05-23T11:50:25;101838.22;;;15.17;65.37
4972;BME280;2501;51.214;6.768;2023-05-23T11:52:56;101828.38;;;14.90;65.40
4972;BME280;2501;51.214;6.768;2023-05-23T11:55:25;101829.44;;;15.27;64.97
4972;BME280;2501;51.214;6.768;2023-05-23T11:57:55;101840.94;;;15.41;64.56
4972;BME280;2501;51.214;6.768;2023-05-23T12:00:24;101841.69;;;15.10;65.17
4972;BME280;2501;51.214;6.768;2023-05-23T12:02:52;101833.84;;;15.20;65.84
4972;BME280;2501;51.214;6.768;2023-05-23T12:05:21;101846.09;;;15.09;66.60
4972;BME280;2501;51.214;6.768;2023-05-23T12:07:49;101851.53;;;15.43;65.42
4972;BME280;2501;51.214;6.768;2023-05-23T12:10:25;101847.84;;;15.09;64.70
4972;BME280;2501;51.214;6.768;2023-05-23T12:12:55;101839.25;;;15.54;63.42
4972;BME280;2501;51.214;6.768;2023-05-23T12:15:25;101844.34;;;15.08;64.32
4972;BME280;2501;51.214;6.768;2023-05-23T12:17:54;101843.50;;;15.17;63.53
4972;BME280;2501;51.214;6.768;2023-05-23T12:20:24;101843.69;;;15.62;62.40
4972;BME280;2501;51.214;6.768;2023-05-23T12:22:53;101837.31;;;15.13;60.85
4972;BME280;2501;51.214;6.768;2023-05-23T12:25:24;101839.28;;;15.58;59.69
4972;BME280;2501;51.214;6.768;2023-05-23T12:27:52;101849.88;;;15.58;59.09
4972;BME280;2501;51.214;6.768;2023-05-23T12:30:21;101849.00;;;15.65;58.90
4972;BME280;2501;51.214;6.768;2023-05-23T12:32:52;101834.91;;;15.79;58.85
4972;BME280;2501;51.214;6.768;2023-05-23T12:35:24;101842.03;;;16.09;58.48
4972;BME280;2501;51.214;6.768;2023-05-23T12:37:55;101846.41;;;16.14;57.86
4972;BME280;2501;51.214;6.768;2023-05-23T12:40:27;101848.19;;;16.18;58.14
4972;BME280;2501;51.214;6.768;2023-05-23T12:42:56;101833.19;;;16.26;57.70
4972;BME280;2501;51.214;6.768;2023-05-23T12:45:30;101821.69;;;16.35;56.61
4972;BME280;2501;51.214;6.768;2023-05-23T12:48:00;101841.13;;;15.93;56.11
4972;BME280;2501;51.214;6.768;2023-05-23T12:50:29;101836.66;;;15.68;54.93
4972;BME280;2501;51.214;6.768;2023-05-23T12:52:58;101833.13;;;15.70;55.57
4972;BME280;2501;51.214;6.768;2023-05-23T12:55:29;101829.59;;;15.77;54.93
4972;BME280;2501;51.214;6.768;2023-05-23T12:57:57;101819.03;;;16.47;53.20
4972;BME280;2501;51.214;6.768;2023-05-23T13:00:26;101817.25;;;16.74;52.06
4972;BME280;2501;51.214;6.768;2023-05-23T13:02:54;101834.03;;;16.66;52.54
4972;BME280;2501;51.214;6.768;2023-05-23T13:05:22;101815.53;;;16.34;52.27
4972;BME280;2501;51.214;6.768;2023-05-23T13:07:51;101819.88;;;16.86;50.80
4972;BME280;2501;51.214;6.768;2023-05-23T13:10:20;101820.78;;;16.76;50.52
4972;BME280;2501;51.214;6.768;2023-05-23T13:12:51;101835.81;;;16.34;51.99
4972;BME280;2501;51.214;6.768;2023-05-23T13:15:19;101835.81;;;16.61;52.00
4972;BME280;2501;51.214;6.768;2023-05-23T13:17:48;101830.50;;;16.64;52.11
4972;BME280;2501;51.214;6.768;2023-05-23T13:20:17;101827.00;;;16.38;51.48
4972;BME280;2501;51.214;6.768;2023-05-23T13:22:45;101827.75;;;17.02;51.31
4972;BME280;2501;51.214;6.768;2023-05-23T13:25:14;101830.50;;;16.69;51.71
4972;BME280;2501;51.214;6.768;2023-05-23T13:27:43;101824.09;;;17.35;50.83
4972;BME280;2501;51.214;6.768;2023-05-23T13:30:15;101837.41;;;17.17;49.47
4972;BME280;2501;51.214;6.768;2023-05-23T13:32:43;101826.66;;;17.51;47.80
4972;BME280;2501;51.214;6.768;2023-05-23T13:35:12;101833.94;;;17.08;48.86
4972;BME280;2501;51.214;6.768;2023-05-23T13:37:40;101823.19;;;17.36;48.76
4972;BME280;2501;51.214;6.768;2023-05-23T13:40:12;101836.19;;;17.85;48.00
4972;BME280;2501;51.214;6.768;2023-05-23T13:42:44;101845.38;;;17.19;48.11
4972;BME280;2501;51.214;6.768;2023-05-23T13:45:15;101841.03;;;17.01;49.29
4972;BME280;2501;51.214;6.768;2023-05-23T13:47:44;101831.72;;;17.96;47.70
4972;BME280;2501;51.214;6.768;2023-05-23T13:50:13;101829.94;;;17.97;47.38
4972;BME280;2501;51.214;6.768;2023-05-23T13:52:41;101819.19;;;18.14;46.74
4972;BME280;2501;51.214;6.768;2023-05-23T13:55:10;101817.00;;;18.60;46.32
4972;BME280;2501;51.214;6.768;2023-05-23T13:57:39;101824.84;;;17.59;46.81